sensor_id;sensor_type;location;lat;lon;timestamp;P1;durP1;ratioP1;P2;durP2;ratioP2
77948;SDS011;67146;51.236;-0.336;2024-03-02T00:00:03;8.48;;;1.80;;
77948;SDS011;67146;51.236;-0.336;2024-03-02T00:02:45;8.43;;;1.58;;
77948;SDS011;67146;51.236;-0.336;2024-03-02T00:05:11;9.50;;;1.30;;
77948;SDS011;67146;51.236;-0.336;2024-03-02T00:07:41;9.70;;;2.55;;
77948;SDS011;67146;51.236;-0.336;2024-03-02T00:10:10;9.85;;;2.28;;
77948;SDS011;67146;51.236;-0.336;2024-03-02T00:12:37;13.13;;;3.00;;
77948;SDS011;67146;51.236;-0.336;2024-03-02T00:15:28;11.95;;;3.15;;
77948;SDS011;67146;51.236;-0.336;2024-03-02T00:17:57;11.48;;;2.70;;
77948;SDS011;67146;51.236;-0.336;2024-03-02T00:20:23;9.73;;;2.72;;
77948;SDS011;67146;51.236;-0.336;2024-03-02T00:22:52;7.25;;;1.25;;
77948;SDS011;67146;51.236;-0.336;2024-03-02T00:25:22;7.97;;;2.38;;
77948;SDS011;67146;51.236;-0.336;2024-03-02T00:27:47;10.30;;;1.73;;
77948;SDS011;67146;51.236;-0.336;2024-03-02T00:30:38;10.30;;;2.50;;
77948;SDS011;67146;51.236;-0.336;2024-03-02T00:33:13;8.35;;;2.20;;
77948;SDS011;67146;51.236;-0.336;2024-03-02T00:35:39;10.38;;;1.80;;
77948;SDS011;67146;51.236;-0.336;2024-03-02T00:38:05;10.27;;;1.90;;
77948;SDS011;67146;51.236;-0.336;2024-03-02T00:40:36;9.77;;;1.60;;
77948;SDS011;67146;51.236;-0.336;2024-03-02T00:43:01;10.85;;;1.30;;
77948;SDS011;67146;51.236;-0.336;2024-03-02T00:45:28;9.85;;;1.48;;
77948;SDS011;67146;51.236;-0.336;2024-03-02T00:47:53;3.42;;;0.50;;
77948;SDS011;67146;51.236;-0.336;2024-03-02T00:50:19;5.28;;;1.05;;
77948;SDS011;67146;51.236;-0.336;2024-03-02T00:52:45;11.88;;;1.20;;
77948;SDS011;67146;51.236;-0.336;2024-03-02T00:55:13;9.77;;;1.15;;
77948;SDS011;67146;51.236;-0.336;2024-03-02T00:57:39;8.15;;;1.23;;
77948;SDS011;67146;51.236;-0.336;2024-03-02T01:00:04;7.88;;;1.88;;
77948;SDS011;67146;51.236;-0.336;2024-03-02T01:02:34;12.93;;;1.85;;
77948;SDS011;67146;51.236;-0.336;2024-03-02T01:05:02;8.00;;;1.52;;
77948;SDS011;67146;51.236;-0.336;2024-03-02T01:07:30;6.38;;;1.10;;
77948;SDS011;67146;51.236;-0.336;2024-03-02T01:09:55;9.63;;;0.77;;
77948;SDS011;67146;51.236;-0.336;2024-03-02T01:12:21;9.43;;;0.75;;
77948;SDS011;67146;51.236;-0.336;2024-03-02T01:14:46;9.43;;;0.82;;
77948;SDS011;67146;51.236;-0.336;2024-03-02T01:17:12;11.20;;;0.90;;
77948;SDS011;67146;51.236;-0.336;2024-03-02T01:19:37;6.45;;;0.63;;
77948;SDS011;67146;51.236;-0.336;2024-03-02T01:22:10;13.52;;;1.08;;
77948;SDS011;67146;51.236;-0.336;2024-03-02T01:24:35;4.63;;;0.68;;
77948;SDS011;67146;51.236;-0.336;2024-03-02T01:27:01;3.72;;;0.82;;
77948;SDS011;67146;51.236;-0.336;2024-03-02T01:29:34;9.38;;;0.80;;
77948;SDS011;67146;51.236;-0.336;2024-03-02T01:32:01;3.58;;;0.85;;
77948;SDS011;67146;51.236;-0.336;2024-03-02T01:34:27;5.78;;;0.20;;
77948;SDS011;67146;51.236;-0.336;2024-03-02T01:36:52;2.38;;;0.40;;
77948;SDS011;67146;51.236;-0.336;2024-03-02T01:39:18;9.38;;;0.60;;
77948;SDS011;67146;51.236;-0.336;2024-03-02T01:41:43;2.97;;;0.13;;
77948;SDS011;67146;51.236;-0.336;2024-03-02T01:44:09;10.48;;;0.77;;
77948;SDS011;67146;51.236;-0.336;2024-03-02T01:46:34;2.53;;;0.35;;
77948;SDS011;67146;51.236;-0.336;2024-03-02T01:49:00;7.30;;;0.80;;
77948;SDS011;67146;51.236;-0.336;2024-03-02T01:51:25;3.40;;;0.40;;
77948;SDS011;67146;51.236;-0.336;2024-03-02T01:53:50;5.25;;;0.65;;
77948;SDS011;67146;51.236;-0.336;2024-03-02T01:56:16;4.15;;;0.50;;
77948;SDS011;67146;51.236;-0.336;2024-03-02T01:58:41;11.07;;;0.60;;
77948;SDS011;67146;51.236;-0.336;2024-03-02T02:01:09;10.05;;;0.95;;
77948;SDS011;67146;51.236;-0.336;2024-03-02T02:03:35;10.48;;;0.98;;
77948;SDS011;67146;51.236;-0.336;2024-03-02T02:06:03;11.45;;;1.67;;
77948;SDS011;67146;51.236;-0.336;2024-03-02T02:08:31;13.27;;;1.27;;
77948;SDS011;67146;51.236;-0.336;2024-03-02T02:10:58;9.77;;;0.70;;
77948;SDS011;67146;51.236;-0.336;2024-03-02T02:13:24;8.80;;;0.65;;
77948;SDS011;67146;51.236;-0.336;2024-03-02T02:16:08;5.05;;;0.70;;
77948;SDS011;67146;51.236;-0.336;2024-03-02T02:18:33;7.15;;;0.68;;
77948;SDS011;67146;51.236;-0.336;2024-03-02T02:21:13;7.82;;;1.13;;
77948;SDS011;67146;51.236;-0.336;2024-03-02T02:23:40;11.93;;;1.13;;
77948;SDS011;67146;51.236;-0.336;2024-03-02T02:26:11;10.25;;;1.20;;
77948;SDS011;67146;51.236;-0.336;2024-03-02T02:28:39;9.52;;;0.55;;
77948;SDS011;67146;51.236;-0.336;2024-03-02T02:31:11;5.78;;;0.60;;
77948;SDS011;67146;51.236;-0.336;2024-03-02T02:33:42;5.85;;;0.75;;
77948;SDS011;67146;51.236;-0.336;2024-03-02T02:36:24;8.35;;;0.68;;
77948;SDS011;67146;51.236;-0.336;2024-03-02T02:38:53;4.22;;;0.82;;
77948;SDS011;67146;51.236;-0.336;2024-03-02T02:41:28;9.25;;;1.25;;
77948;SDS011;67146;51.236;-0.336;2024-03-02T02:43:54;12.85;;;1.65;;
77948;SDS011;67146;51.236;-0.336;2024-03-02T02:46:20;5.65;;;0.80;;
77948;SDS011;67146;51.236;-0.336;2024-03-02T02:48:45;8.48;;;1.13;;
77948;SDS011;67146;51.236;-0.336;2024-03-02T02:51:11;7.28;;;1.20;;
77948;SDS011;67146;51.236;-0.336;2024-03-02T02:53:36;6.47;;;1.48;;
77948;SDS011;67146;51.236;-0.336;2024-03-02T02:56:05;3.88;;;0.82;;
77948;SDS011;67146;51.236;-0.336;2024-03-02T02:58:31;4.18;;;0.80;;
77948;SDS011;67146;51.236;-0.336;2024-03-02T03:00:56;7.18;;;0.75;;
77948;SDS011;67146;51.236;-0.336;2024-03-02T03:03:22;6.60;;;0.60;;
77948;SDS011;67146;51.236;-0.336;2024-03-02T03:05:48;4.90;;;0.60;;
77948;SDS011;67146;51.236;-0.336;2024-03-02T03:08:13;8.73;;;1.00;;
77948;SDS011;67146;51.236;-0.336;2024-03-02T03:10:41;8.02;;;1.48;;
77948;SDS011;67146;51.236;-0.336;2024-03-02T03:13:06;9.75;;;1.15;;
77948;SDS011;67146;51.236;-0.336;2024-03-02T03:15:34;8.48;;;0.70;;
77948;SDS011;67146;51.236;-0.336;2024-03-02T03:18:00;11.63;;;1.10;;
77948;SDS011;67146;51.236;-0.336;2024-03-02T03:20:25;7.00;;;0.98;;
77948;SDS011;67146;51.236;-0.336;2024-03-02T03:22:53;8.98;;;1.10;;
77948;SDS011;67146;51.236;-0.336;2024-03-02T03:25:18;11.23;;;0.73;;
77948;SDS011;67146;51.236;-0.336;2024-03-02T03:27:47;8.95;;;1.05;;
77948;SDS011;67146;51.236;-0.336;2024-03-02T03:30:12;10.02;;;1.02;;
77948;SDS011;67146;51.236;-0.336;2024-03-02T03:32:38;7.25;;;0.47;;
77948;SDS011;67146;51.236;-0.336;2024-03-02T03:35:04;6.38;;;0.75;;
77948;SDS011;67146;51.236;-0.336;2024-03-02T03:37:30;10.07;;;1.60;;
77948;SDS011;67146;51.236;-0.336;2024-03-02T03:40:01;7.28;;;0.60;;
77948;SDS011;67146;51.236;-0.336;2024-03-02T03:42:35;8.45;;;1.52;;
77948;SDS011;67146;51.236;-0.336;2024-03-02T03:45:00;7.45;;;1.05;;
77948;SDS011;67146;51.236;-0.336;2024-03-02T03:47:26;9.48;;;1.23;;
77948;SDS011;67146;51.236;-0.336;2024-03-02T03:49:59;11.23;;;1.95;;
77948;SDS011;67146;51.236;-0.336;2024-03-02T03:52:24;4.30;;;0.60;;
77948;SDS011;67146;51.236;-0.336;2024-03-02T03:54:52;12.85;;;1.58;;
77948;SDS011;67146;51.236;-0.336;2024-03-02T03:57:17;3.95;;;0.57;;
77948;SDS011;67146;51.236;-0.336;2024-03-02T03:59:43;9.48;;;1.10;;
77948;SDS011;67146;51.236;-0.336;2024-03-02T04:02:09;10.10;;;1.50;;
77948;SDS011;67146;51.236;-0.336;2024-03-02T04:04:36;7.03;;;1.13;;
77948;SDS011;67146;51.236;-0.336;2024-03-02T04:07:02;10.07;;;0.95;;
77948;SDS011;67146;51.236;-0.336;2024-03-02T04:09:27;11.38;;;1.48;;
77948;SDS011;67146;51.236;-0.336;2024-03-02T04:11:53;11.02;;;1.10;;
77948;SDS011;67146;51.236;-0.336;2024-03-02T04:14:20;13.00;;;1.10;;
77948;SDS011;67146;51.236;-0.336;2024-03-02T04:16:46;7.90;;;1.30;;
77948;SDS011;67146;51.236;-0.336;2024-03-02T04:19:11;8.80;;;1.13;;
77948;SDS011;67146;51.236;-0.336;2024-03-02T04:21:37;7.25;;;0.80;;
77948;SDS011;67146;51.236;-0.336;2024-03-02T04:24:05;5.20;;;0.95;;
77948;SDS011;67146;51.236;-0.336;2024-03-02T04:26:33;8.15;;;1.27;;
77948;SDS011;67146;51.236;-0.336;2024-03-02T04:28:58;6.82;;;0.95;;
77948;SDS011;67146;51.236;-0.336;2024-03-02T04:31:24;8.95;;;1.17;;
77948;SDS011;67146;51.236;-0.336;2024-03-02T04:33:49;7.68;;;0.70;;
77948;SDS011;67146;51.236;-0.336;2024-03-02T04:36:14;8.15;;;0.55;;
77948;SDS011;67146;51.236;-0.336;2024-03-02T04:38:40;5.50;;;0.80;;
77948;SDS011;67146;51.236;-0.336;2024-03-02T04:41:05;9.38;;;1.10;;
77948;SDS011;67146;51.236;-0.336;2024-03-02T04:43:32;12.70;;;0.98;;
77948;SDS011;67146;51.236;-0.336;2024-03-02T04:45:58;10.65;;;1.17;;
77948;SDS011;67146;51.236;-0.336;2024-03-02T04:48:23;5.68;;;0.95;;
77948;SDS011;67146;51.236;-0.336;2024-03-02T04:50:49;6.85;;;0.70;;
77948;SDS011;67146;51.236;-0.336;2024-03-02T04:53:15;7.53;;;1.02;;
77948;SDS011;67146;51.236;-0.336;2024-03-02T04:55:40;13.35;;;1.45;;
77948;SDS011;67146;51.236;-0.336;2024-03-02T04:58:05;11.40;;;1.13;;
77948;SDS011;67146;51.236;-0.336;2024-03-02T05:00:31;6.93;;;0.77;;
77948;SDS011;67146;51.236;-0.336;2024-03-02T05:02:57;6.43;;;1.00;;
77948;SDS011;67146;51.236;-0.336;2024-03-02T05:05:23;5.55;;;0.90;;
77948;SDS011;67146;51.236;-0.336;2024-03-02T05:07:48;9.32;;;1.15;;
77948;SDS011;67146;51.236;-0.336;2024-03-02T05:10:14;10.50;;;0.93;;
77948;SDS011;67146;51.236;-0.336;2024-03-02T05:12:39;15.25;;;1.30;;
77948;SDS011;67146;51.236;-0.336;2024-03-02T05:15:08;7.22;;;0.68;;
77948;SDS011;67146;51.236;-0.336;2024-03-02T05:17:35;12.18;;;1.20;;
77948;SDS011;67146;51.236;-0.336;2024-03-02T05:20:04;7.38;;;1.02;;
77948;SDS011;67146;51.236;-0.336;2024-03-02T05:22:31;9.45;;;1.33;;
77948;SDS011;67146;51.236;-0.336;2024-03-02T05:24:56;10.80;;;0.95;;
77948;SDS011;67146;51.236;-0.336;2024-03-02T05:27:24;9.90;;;1.02;;
77948;SDS011;67146;51.236;-0.336;2024-03-02T05:29:49;8.15;;;1.52;;
77948;SDS011;67146;51.236;-0.336;2024-03-02T05:32:15;11.95;;;1.05;;
77948;SDS011;67146;51.236;-0.336;2024-03-02T05:34:40;11.70;;;1.48;;
77948;SDS011;67146;51.236;-0.336;2024-03-02T05:37:08;7.43;;;1.80;;
77948;SDS011;67146;51.236;-0.336;2024-03-02T05:39:35;6.95;;;1.00;;
77948;SDS011;67146;51.236;-0.336;2024-03-02T05:42:03;4.18;;;0.60;;
77948;SDS011;67146;51.236;-0.336;2024-03-02T05:44:31;13.23;;;1.58;;
77948;SDS011;67146;51.236;-0.336;2024-03-02T05:46:57;8.23;;;0.93;;
77948;SDS011;67146;51.236;-0.336;2024-03-02T05:49:28;7.07;;;0.95;;
77948;SDS011;67146;51.236;-0.336;2024-03-02T05:51:53;7.93;;;1.52;;
77948;SDS011;67146;51.236;-0.336;2024-03-02T05:54:21;6.55;;;0.98;;
77948;SDS011;67146;51.236;-0.336;2024-03-02T05:56:46;6.93;;;0.70;;
77948;SDS011;67146;51.236;-0.336;2024-03-02T05:59:14;10.70;;;1.23;;
77948;SDS011;67146;51.236;-0.336;2024-03-02T06:01:45;5.65;;;0.63;;
77948;SDS011;67146;51.236;-0.336;2024-03-02T06:04:15;9.20;;;0.77;;
77948;SDS011;67146;51.236;-0.336;2024-03-02T06:06:45;10.00;;;1.48;;
77948;SDS011;67146;51.236;-0.336;2024-03-02T06:09:14;10.63;;;0.85;;
77948;SDS011;67146;51.236;-0.336;2024-03-02T06:11:43;10.55;;;1.27;;
77948;SDS011;67146;51.236;-0.336;2024-03-02T06:14:09;11.45;;;1.33;;
77948;SDS011;67146;51.236;-0.336;2024-03-02T06:16:34;14.02;;;1.15;;
77948;SDS011;67146;51.236;-0.336;2024-03-02T06:19:03;7.93;;;1.00;;
77948;SDS011;67146;51.236;-0.336;2024-03-02T06:21:29;8.30;;;0.93;;
77948;SDS011;67146;51.236;-0.336;2024-03-02T06:23:54;8.18;;;0.80;;
77948;SDS011;67146;51.236;-0.336;2024-03-02T06:26:22;12.35;;;1.00;;
77948;SDS011;67146;51.236;-0.336;2024-03-02T06:28:54;11.40;;;1.75;;
77948;SDS011;67146;51.236;-0.336;2024-03-02T06:31:20;12.82;;;1.52;;
77948;SDS011;67146;51.236;-0.336;2024-03-02T06:33:48;9.10;;;1.35;;
77948;SDS011;67146;51.236;-0.336;2024-03-02T06:36:14;12.77;;;1.80;;
77948;SDS011;67146;51.236;-0.336;2024-03-02T06:38:40;13.60;;;1.63;;
77948;SDS011;67146;51.236;-0.336;2024-03-02T06:41:06;11.07;;;1.30;;
77948;SDS011;67146;51.236;-0.336;2024-03-02T06:43:33;12.75;;;1.70;;
77948;SDS011;67146;51.236;-0.336;2024-03-02T06:46:09;6.32;;;1.42;;
77948;SDS011;67146;51.236;-0.336;2024-03-02T06:48:39;7.78;;;1.08;;
77948;SDS011;67146;51.236;-0.336;2024-03-02T06:51:05;10.00;;;0.73;;
77948;SDS011;67146;51.236;-0.336;2024-03-02T06:53:30;7.57;;;1.02;;
77948;SDS011;67146;51.236;-0.336;2024-03-02T06:55:58;8.50;;;1.25;;
77948;SDS011;67146;51.236;-0.336;2024-03-02T06:58:24;7.93;;;1.23;;
77948;SDS011;67146;51.236;-0.336;2024-03-02T07:00:49;6.82;;;0.80;;
77948;SDS011;67146;51.236;-0.336;2024-03-02T07:03:14;7.82;;;0.65;;
77948;SDS011;67146;51.236;-0.336;2024-03-02T07:05:40;5.63;;;0.70;;
77948;SDS011;67146;51.236;-0.336;2024-03-02T07:08:08;8.82;;;1.13;;
77948;SDS011;67146;51.236;-0.336;2024-03-02T07:10:33;7.20;;;1.02;;
77948;SDS011;67146;51.236;-0.336;2024-03-02T07:13:01;5.20;;;0.75;;
77948;SDS011;67146;51.236;-0.336;2024-03-02T07:15:27;10.13;;;1.15;;
77948;SDS011;67146;51.236;-0.336;2024-03-02T07:17:52;13.77;;;1.83;;
77948;SDS011;67146;51.236;-0.336;2024-03-02T07:20:18;11.05;;;1.00;;
77948;SDS011;67146;51.236;-0.336;2024-03-02T07:22:48;11.75;;;1.48;;
77948;SDS011;67146;51.236;-0.336;2024-03-02T07:25:37;11.20;;;1.45;;
77948;SDS011;67146;51.236;-0.336;2024-03-02T07:28:15;6.03;;;1.25;;
77948;SDS011;67146;51.236;-0.336;2024-03-02T07:30:41;32.13;;;1.95;;
77948;SDS011;67146;51.236;-0.336;2024-03-02T07:33:06;11.75;;;1.33;;
77948;SDS011;67146;51.236;-0.336;2024-03-02T07:35:32;9.65;;;0.98;;
77948;SDS011;67146;51.236;-0.336;2024-03-02T07:38:00;9.65;;;1.05;;
77948;SDS011;67146;51.236;-0.336;2024-03-02T07:40:30;6.88;;;1.85;;
77948;SDS011;67146;51.236;-0.336;2024-03-02T07:42:58;5.03;;;0.68;;
77948;SDS011;67146;51.236;-0.336;2024-03-02T07:45:34;9.93;;;0.68;;
77948;SDS011;67146;51.236;-0.336;2024-03-02T07:48:01;6.63;;;1.27;;
77948;SDS011;67146;51.236;-0.336;2024-03-02T07:50:31;10.95;;;0.88;;
77948;SDS011;67146;51.236;-0.336;2024-03-02T07:53:00;4.00;;;0.70;;
77948;SDS011;67146;51.236;-0.336;2024-03-02T07:58:36;3.15;;;0.30;;
77948;SDS011;67146;51.236;-0.336;2024-03-02T08:01:43;1.63;;;0.38;;
77948;SDS011;67146;51.236;-0.336;2024-03-02T08:07:20;2.20;;;0.30;;
77948;SDS011;67146;51.236;-0.336;2024-03-02T08:10:20;1.40;;;0.10;;
77948;SDS011;67146;51.236;-0.336;2024-03-02T08:19:44;3.45;;;0.90;;
77948;SDS011;67146;51.236;-0.336;2024-03-02T08:22:31;1.40;;;0.40;;
77948;SDS011;67146;51.236;-0.336;2024-03-02T08:28:59;2.05;;;0.35;;
77948;SDS011;67146;51.236;-0.336;2024-03-02T08:34:47;1.80;;;0.28;;
77948;SDS011;67146;51.236;-0.336;2024-03-02T08:37:50;1.30;;;0.35;;
77948;SDS011;67146;51.236;-0.336;2024-03-02T08:40:21;1.70;;;0.35;;
77948;SDS011;67146;51.236;-0.336;2024-03-02T08:43:31;3.40;;;0.38;;
77948;SDS011;67146;51.236;-0.336;2024-03-02T08:45:59;2.05;;;0.30;;
77948;SDS011;67146;51.236;-0.336;2024-03-02T08:48:53;3.05;;;0.50;;
77948;SDS011;67146;51.236;-0.336;2024-03-02T08:51:38;1.20;;;0.40;;
77948;SDS011;67146;51.236;-0.336;2024-03-02T09:04:58;1.77;;;0.28;;
77948;SDS011;67146;51.236;-0.336;2024-03-02T09:07:28;1.38;;;0.38;;
77948;SDS011;67146;51.236;-0.336;2024-03-02T09:09:53;2.20;;;0.75;;
77948;SDS011;67146;51.236;-0.336;2024-03-02T09:12:19;2.58;;;0.28;;
77948;SDS011;67146;51.236;-0.336;2024-03-02T09:14:50;1.23;;;0.30;;
77948;SDS011;67146;51.236;-0.336;2024-03-02T09:17:15;1.40;;;0.20;;
77948;SDS011;67146;51.236;-0.336;2024-03-02T09:19:43;1.95;;;0.30;;
77948;SDS011;67146;51.236;-0.336;2024-03-02T09:22:19;2.50;;;0.38;;
77948;SDS011;67146;51.236;-0.336;2024-03-02T09:24:48;5.68;;;0.43;;
77948;SDS011;67146;51.236;-0.336;2024-03-02T09:27:13;1.67;;;0.30;;
77948;SDS011;67146;51.236;-0.336;2024-03-02T09:29:41;2.10;;;0.30;;
77948;SDS011;67146;51.236;-0.336;2024-03-02T09:32:08;0.95;;;0.25;;
77948;SDS011;67146;51.236;-0.336;2024-03-02T09:34:37;2.40;;;0.40;;
77948;SDS011;67146;51.236;-0.336;2024-03-02T09:37:13;1.27;;;0.38;;
77948;SDS011;67146;51.236;-0.336;2024-03-02T09:39:44;1.20;;;0.20;;
77948;SDS011;67146;51.236;-0.336;2024-03-02T09:42:12;1.38;;;0.13;;
77948;SDS011;67146;51.236;-0.336;2024-03-02T09:44:38;2.63;;;0.38;;
77948;SDS011;67146;51.236;-0.336;2024-03-02T09:47:04;3.03;;;0.20;;
77948;SDS011;67146;51.236;-0.336;2024-03-02T09:49:30;1.15;;;0.30;;
77948;SDS011;67146;51.236;-0.336;2024-03-02T09:52:00;2.30;;;0.30;;
77948;SDS011;67146;51.236;-0.336;2024-03-02T09:54:34;2.22;;;0.50;;
77948;SDS011;67146;51.236;-0.336;2024-03-02T09:56:59;1.55;;;0.30;;
77948;SDS011;67146;51.236;-0.336;2024-03-02T09:59:29;1.88;;;0.30;;
77948;SDS011;67146;51.236;-0.336;2024-03-02T10:02:00;1.83;;;0.20;;
77948;SDS011;67146;51.236;-0.336;2024-03-02T10:04:27;2.00;;;0.30;;
77948;SDS011;67146;51.236;-0.336;2024-03-02T10:07:11;1.67;;;0.30;;
77948;SDS011;67146;51.236;-0.336;2024-03-02T10:09:40;2.15;;;1.27;;
77948;SDS011;67146;51.236;-0.336;2024-03-02T10:12:06;1.92;;;0.28;;
77948;SDS011;67146;51.236;-0.336;2024-03-02T10:14:40;1.90;;;0.65;;
77948;SDS011;67146;51.236;-0.336;2024-03-02T10:17:09;0.70;;;0.10;;
77948;SDS011;67146;51.236;-0.336;2024-03-02T10:19:39;1.50;;;0.55;;
77948;SDS011;67146;51.236;-0.336;2024-03-02T10:22:05;3.50;;;0.52;;
77948;SDS011;67146;51.236;-0.336;2024-03-02T10:24:35;2.05;;;0.40;;
77948;SDS011;67146;51.236;-0.336;2024-03-02T10:27:26;1.55;;;0.20;;
77948;SDS011;67146;51.236;-0.336;2024-03-02T10:29:51;2.67;;;0.50;;
77948;SDS011;67146;51.236;-0.336;2024-03-02T10:32:16;1.80;;;0.47;;
77948;SDS011;67146;51.236;-0.336;2024-03-02T10:34:42;1.05;;;0.20;;
77948;SDS011;67146;51.236;-0.336;2024-03-02T10:37:10;1.13;;;0.20;;
77948;SDS011;67146;51.236;-0.336;2024-03-02T10:39:38;1.50;;;0.28;;
77948;SDS011;67146;51.236;-0.336;2024-03-02T10:42:05;1.00;;;0.28;;
77948;SDS011;67146;51.236;-0.336;2024-03-02T10:44:31;1.20;;;0.40;;
77948;SDS011;67146;51.236;-0.336;2024-03-02T10:47:02;1.13;;;0.57;;
77948;SDS011;67146;51.236;-0.336;2024-03-02T10:49:32;1.95;;;0.73;;
77948;SDS011;67146;51.236;-0.336;2024-03-02T10:52:00;1.08;;;0.20;;
77948;SDS011;67146;51.236;-0.336;2024-03-02T10:54:26;0.95;;;0.40;;
77948;SDS011;67146;51.236;-0.336;2024-03-02T10:56:53;1.52;;;0.73;;
77948;SDS011;67146;51.236;-0.336;2024-03-02T10:59:37;1.30;;;0.20;;
77948;SDS011;67146;51.236;-0.336;2024-03-02T11:02:04;1.45;;;0.20;;
77948;SDS011;67146;51.236;-0.336;2024-03-02T11:04:33;2.58;;;0.40;;
77948;SDS011;67146;51.236;-0.336;2024-03-02T11:07:02;1.70;;;0.22;;
77948;SDS011;67146;51.236;-0.336;2024-03-02T11:09:29;8.40;;;0.52;;
77948;SDS011;67146;51.236;-0.336;2024-03-02T11:12:16;1.95;;;0.40;;
77948;SDS011;67146;51.236;-0.336;2024-03-02T11:14:44;2.38;;;0.38;;
77948;SDS011;67146;51.236;-0.336;2024-03-02T11:17:10;2.80;;;0.60;;
77948;SDS011;67146;51.236;-0.336;2024-03-02T11:19:38;1.40;;;0.40;;
77948;SDS011;67146;51.236;-0.336;2024-03-02T11:22:04;3.40;;;0.57;;
77948;SDS011;67146;51.236;-0.336;2024-03-02T11:24:30;1.83;;;0.50;;
77948;SDS011;67146;51.236;-0.336;2024-03-02T11:27:02;1.77;;;0.20;;
77948;SDS011;67146;51.236;-0.336;2024-03-02T11:32:06;2.28;;;0.88;;
77948;SDS011;67146;51.236;-0.336;2024-03-02T11:34:50;2.70;;;0.63;;
77948;SDS011;67146;51.236;-0.336;2024-03-02T11:37:16;3.08;;;1.00;;
77948;SDS011;67146;51.236;-0.336;2024-03-02T11:39:46;2.20;;;0.77;;
77948;SDS011;67146;51.236;-0.336;2024-03-02T11:42:14;2.92;;;0.63;;
77948;SDS011;67146;51.236;-0.336;2024-03-02T11:47:12;3.63;;;1.20;;
77948;SDS011;67146;51.236;-0.336;2024-03-02T11:49:44;2.22;;;0.65;;
77948;SDS011;67146;51.236;-0.336;2024-03-02T11:52:14;2.53;;;0.45;;
77948;SDS011;67146;51.236;-0.336;2024-03-02T11:54:42;3.15;;;0.73;;
77948;SDS011;67146;51.236;-0.336;2024-03-02T11:57:28;1.98;;;0.43;;
77948;SDS011;67146;51.236;-0.336;2024-03-02T11:59:56;2.58;;;0.70;;
77948;SDS011;67146;51.236;-0.336;2024-03-02T12:02:23;3.13;;;0.50;;
77948;SDS011;67146;51.236;-0.336;2024-03-02T12:04:51;5.55;;;1.15;;
77948;SDS011;67146;51.236;-0.336;2024-03-02T12:07:20;2.28;;;0.68;;
77948;SDS011;67146;51.236;-0.336;2024-03-02T12:10:07;2.38;;;0.50;;
77948;SDS011;67146;51.236;-0.336;2024-03-02T12:12:33;4.25;;;0.85;;
77948;SDS011;67146;51.236;-0.336;2024-03-02T12:14:58;2.65;;;0.55;;
77948;SDS011;67146;51.236;-0.336;2024-03-02T12:17:33;2.00;;;0.43;;
77948;SDS011;67146;51.236;-0.336;2024-03-02T12:20:00;2.33;;;0.80;;
77948;SDS011;67146;51.236;-0.336;2024-03-02T12:22:28;2.90;;;0.60;;
77948;SDS011;67146;51.236;-0.336;2024-03-02T12:24:59;3.40;;;0.75;;
77948;SDS011;67146;51.236;-0.336;2024-03-02T12:27:26;2.35;;;0.63;;
77948;SDS011;67146;51.236;-0.336;2024-03-02T12:30:04;6.50;;;0.98;;
77948;SDS011;67146;51.236;-0.336;2024-03-02T12:32:35;1.70;;;0.20;;
77948;SDS011;67146;51.236;-0.336;2024-03-02T12:35:07;2.42;;;0.82;;
77948;SDS011;67146;51.236;-0.336;2024-03-02T12:37:47;4.32;;;0.75;;
77948;SDS011;67146;51.236;-0.336;2024-03-02T12:40:19;3.30;;;0.52;;
77948;SDS011;67146;51.236;-0.336;2024-03-02T12:42:47;3.33;;;0.90;;
77948;SDS011;67146;51.236;-0.336;2024-03-02T12:45:19;3.60;;;1.08;;
77948;SDS011;67146;51.236;-0.336;2024-03-02T12:48:16;5.05;;;0.77;;
77948;SDS011;67146;51.236;-0.336;2024-03-02T12:53:32;1.92;;;0.40;;
77948;SDS011;67146;51.236;-0.336;2024-03-02T12:56:10;1.65;;;0.40;;
77948;SDS011;67146;51.236;-0.336;2024-03-02T12:58:39;3.03;;;0.85;;
77948;SDS011;67146;51.236;-0.336;2024-03-02T13:01:07;2.40;;;0.55;;
77948;SDS011;67146;51.236;-0.336;2024-03-02T13:14:27;1.90;;;0.68;;
77948;SDS011;67146;51.236;-0.336;2024-03-02T13:24:18;1.70;;;0.43;;
77948;SDS011;67146;51.236;-0.336;2024-03-02T13:52:06;2.00;;;0.85;;
77948;SDS011;67146;51.236;-0.336;2024-03-02T13:55:00;2.28;;;0.60;;
77948;SDS011;67146;51.236;-0.336;2024-03-02T13:57:35;2.90;;;0.82;;
77948;SDS011;67146;51.236;-0.336;2024-03-02T14:00:27;1.63;;;0.47;;
77948;SDS011;67146;51.236;-0.336;2024-03-02T14:03:01;4.10;;;0.60;;
77948;SDS011;67146;51.236;-0.336;2024-03-02T14:06:02;3.78;;;0.55;;
77948;SDS011;67146;51.236;-0.336;2024-03-02T14:08:33;2.03;;;0.68;;
77948;SDS011;67146;51.236;-0.336;2024-03-02T14:11:03;4.32;;;0.77;;
77948;SDS011;67146;51.236;-0.336;2024-03-02T14:13:42;3.55;;;0.73;;
77948;SDS011;67146;51.236;-0.336;2024-03-02T14:16:38;2.35;;;0.73;;
77948;SDS011;67146;51.236;-0.336;2024-03-02T14:19:18;4.63;;;1.63;;
77948;SDS011;67146;51.236;-0.336;2024-03-02T14:21:49;2.70;;;0.98;;
77948;SDS011;67146;51.236;-0.336;2024-03-02T14:24:19;2.80;;;1.02;;
77948;SDS011;67146;51.236;-0.336;2024-03-02T14:26:54;3.28;;;1.08;;
77948;SDS011;67146;51.236;-0.336;2024-03-02T14:32:37;3.42;;;1.40;;
77948;SDS011;67146;51.236;-0.336;2024-03-02T14:35:11;4.82;;;0.93;;
77948;SDS011;67146;51.236;-0.336;2024-03-02T14:37:49;3.13;;;0.68;;
77948;SDS011;67146;51.236;-0.336;2024-03-02T14:40:15;3.17;;;0.98;;
77948;SDS011;67146;51.236;-0.336;2024-03-02T14:45:32;1.97;;;0.50;;
77948;SDS011;67146;51.236;-0.336;2024-03-02T16:16:21;15.18;;;9.93;;
77948;SDS011;67146;51.236;-0.336;2024-03-02T16:19:29;7.95;;;4.15;;
77948;SDS011;67146;51.236;-0.336;2024-03-02T16:22:23;10.13;;;7.68;;
77948;SDS011;67146;51.236;-0.336;2024-03-02T16:42:47;24.90;;;7.55;;
77948;SDS011;67146;51.236;-0.336;2024-03-02T17:20:10;6.78;;;2.15;;
77948;SDS011;67146;51.236;-0.336;2024-03-02T17:23:22;3.33;;;0.80;;
77948;SDS011;67146;51.236;-0.336;2024-03-02T17:30:13;6.75;;;2.20;;
77948;SDS011;67146;51.236;-0.336;2024-03-02T17:44:00;10.85;;;3.70;;
77948;SDS011;67146;51.236;-0.336;2024-03-02T17:46:35;10.50;;;4.03;;
77948;SDS011;67146;51.236;-0.336;2024-03-02T17:53:06;9.35;;;3.10;;
77948;SDS011;67146;51.236;-0.336;2024-03-02T17:56:21;20.80;;;7.88;;
77948;SDS011;67146;51.236;-0.336;2024-03-02T17:59:02;12.30;;;4.60;;
77948;SDS011;67146;51.236;-0.336;2024-03-02T18:01:48;8.38;;;2.35;;
77948;SDS011;67146;51.236;-0.336;2024-03-02T18:04:22;6.05;;;2.10;;
77948;SDS011;67146;51.236;-0.336;2024-03-02T18:07:11;6.85;;;1.83;;
77948;SDS011;67146;51.236;-0.336;2024-03-02T18:13:39;5.78;;;1.30;;
77948;SDS011;67146;51.236;-0.336;2024-03-02T18:16:24;6.55;;;1.30;;
77948;SDS011;67146;51.236;-0.336;2024-03-02T18:19:25;6.68;;;1.45;;
77948;SDS011;67146;51.236;-0.336;2024-03-02T18:22:31;5.90;;;1.20;;
77948;SDS011;67146;51.236;-0.336;2024-03-02T18:25:35;10.13;;;1.60;;
77948;SDS011;67146;51.236;-0.336;2024-03-02T18:28:30;9.45;;;3.53;;
77948;SDS011;67146;51.236;-0.336;2024-03-02T18:30:56;7.90;;;3.47;;
77948;SDS011;67146;51.236;-0.336;2024-03-02T18:33:39;12.27;;;5.50;;
77948;SDS011;67146;51.236;-0.336;2024-03-02T18:36:35;29.40;;;12.75;;
77948;SDS011;67146;51.236;-0.336;2024-03-02T18:39:41;17.75;;;8.60;;
77948;SDS011;67146;51.236;-0.336;2024-03-02T18:42:08;10.70;;;4.85;;
77948;SDS011;67146;51.236;-0.336;2024-03-02T18:44:53;13.23;;;5.45;;
77948;SDS011;67146;51.236;-0.336;2024-03-02T18:47:32;12.73;;;5.72;;
77948;SDS011;67146;51.236;-0.336;2024-03-02T18:50:05;10.95;;;4.05;;
77948;SDS011;67146;51.236;-0.336;2024-03-02T18:55:21;8.27;;;3.38;;
77948;SDS011;67146;51.236;-0.336;2024-03-02T19:00:58;19.27;;;8.40;;
77948;SDS011;67146;51.236;-0.336;2024-03-02T19:03:47;17.20;;;8.02;;
77948;SDS011;67146;51.236;-0.336;2024-03-02T19:06:24;13.15;;;5.22;;
77948;SDS011;67146;51.236;-0.336;2024-03-02T19:08:55;12.20;;;6.20;;
77948;SDS011;67146;51.236;-0.336;2024-03-02T19:11:29;15.48;;;5.95;;